sensor_id;sensor_type;location;lat;lon;timestamp;pressure;altitude;pressure_sealevel;temperature;humidity
8585;BME280;7180;52.742;11.420;2024-02-21T00:00:47;77721.09;;;-142.35;67.59
8585;BME280;7180;52.742;11.420;2024-02-21T00:03:12;77725.13;;;-142.35;68.11
8585;BME280;7180;52.742;11.420;2024-02-21T00:05:38;77731.19;;;-142.35;68.39
8585;BME280;7180;52.742;11.420;2024-02-21T00:08:03;77747.31;;;-142.35;68.57
8585;BME280;7180;52.742;11.420;2024-02-21T00:10:29;77761.44;;;-142.35;69.13
8585;BME280;7180;52.742;11.420;2024-02-21T00:12:56;77777.56;;;-142.35;69.49
8585;BME280;7180;52.742;11.420;2024-02-21T00:15:21;77779.59;;;-142.35;70.01
8585;BME280;7180;52.742;11.420;2024-02-21T00:17:47;77767.50;;;-142.35;70.23
8585;BME280;7180;52.742;11.420;2024-02-21T00:20:13;77777.56;;;-142.35;70.58
8585;BME280;7180;52.742;11.420;2024-02-21T00:22:39;77773.53;;;-142.35;70.65
8585;BME280;7180;52.742;11.420;2024-02-21T00:25:04;77773.53;;;-142.35;70.99
8585;BME280;7180;52.742;11.420;2024-02-21T00:27:29;77757.41;;;-142.35;71.14
8585;BME280;7180;52.742;11.420;2024-02-21T00:29:56;77761.44;;;-142.35;71.11
8585;BME280;7180;52.742;11.420;2024-02-21T00:32:21;77781.59;;;-142.35;71.59
8585;BME280;7180;52.742;11.420;2024-02-21T00:34:46;77785.63;;;-142.35;72.24
8585;BME280;7180;52.742;11.420;2024-02-21T00:37:12;77773.53;;;-142.35;72.10
8585;BME280;7180;52.742;11.420;2024-02-21T00:39:37;77793.69;;;-142.35;72.75
8585;BME280;7180;52.742;11.420;2024-02-21T00:42:02;77785.63;;;-142.35;72.85
8585;BME280;7180;52.742;11.420;2024-02-21T00:44:28;77761.44;;;-142.35;72.56
8585;BME280;7180;52.742;11.420;2024-02-21T00:46:53;77755.38;;;-142.35;72.60
8585;BME280;7180;52.742;11.420;2024-02-21T00:49:18;77781.59;;;-142.35;72.98
8585;BME280;7180;52.742;11.420;2024-02-21T00:51:44;77777.56;;;-142.35;73.26
8585;BME280;7180;52.742;11.420;2024-02-21T00:54:09;77795.72;;;-142.35;73.25
8585;BME280;7180;52.742;11.420;2024-02-21T00:56:34;77787.66;;;-142.35;73.61
8585;BME280;7180;52.742;11.420;2024-02-21T00:59:00;77777.56;;;-142.35;73.62
8585;BME280;7180;52.742;11.420;2024-02-21T01:01:25;77747.31;;;-142.35;73.41
8585;BME280;7180;52.742;11.420;2024-02-21T01:03:50;77757.41;;;-142.35;73.38
8585;BME280;7180;52.742;11.420;2024-02-21T01:06:19;77773.53;;;-142.35;73.68
8585;BME280;7180;52.742;11.420;2024-02-21T01:08:44;77765.47;;;-142.35;73.71
8585;BME280;7180;52.742;11.420;2024-02-21T01:11:09;77757.41;;;-142.35;73.80
8585;BME280;7180;52.742;11.420;2024-02-21T01:13:35;77733.22;;;-142.35;73.50
8585;BME280;7180;52.742;11.420;2024-02-21T01:16:00;77721.09;;;-142.35;73.52
8585;BME280;7180;52.742;11.420;2024-02-21T01:18:25;77739.25;;;-142.35;73.46
8585;BME280;7180;52.742;11.420;2024-02-21T01:20:51;77717.06;;;-142.35;73.58
8585;BME280;7180;52.742;11.420;2024-02-21T01:23:16;77713.03;;;-142.35;73.37
8585;BME280;7180;52.742;11.420;2024-02-21T01:25:41;77729.16;;;-142.35;73.59
8585;BME280;7180;52.742;11.420;2024-02-21T01:28:07;77717.06;;;-142.35;73.49
8585;BME280;7180;52.742;11.420;2024-02-21T01:30:32;77684.81;;;-142.35;73.45
8585;BME280;7180;52.742;11.420;2024-02-21T01:32:58;77674.72;;;-142.35;73.19
8585;BME280;7180;52.742;11.420;2024-02-21T01:35:23;77672.72;;;-142.35;73.36
8585;BME280;7180;52.742;11.420;2024-02-21T01:37:48;77684.81;;;-142.35;73.17
8585;BME280;7180;52.742;11.420;2024-02-21T01:40:14;77700.94;;;-142.35;73.59
8585;BME280;7180;52.742;11.420;2024-02-21T01:42:40;77702.97;;;-142.35;73.56
8585;BME280;7180;52.742;11.420;2024-02-21T01:45:06;77741.28;;;-142.35;74.07
8585;BME280;7180;52.742;11.420;2024-02-21T01:47:31;77711.03;;;-142.35;74.13
8585;BME280;7180;52.742;11.420;2024-02-21T01:49:56;77692.88;;;-142.35;73.82
8585;BME280;7180;52.742;11.420;2024-02-21T01:52:22;77686.81;;;-142.35;73.67
8585;BME280;7180;52.742;11.420;2024-02-21T01:54:48;77688.84;;;-142.35;73.42
8585;BME280;7180;52.742;11.420;2024-02-21T01:57:13;77696.91;;;-142.35;73.99
8585;BME280;7180;52.742;11.420;2024-02-21T01:59:38;77694.91;;;-142.35;73.92
8585;BME280;7180;52.742;11.420;2024-02-21T02:02:04;77688.84;;;-142.35;74.09
8585;BME280;7180;52.742;11.420;2024-02-21T02:04:29;77709.00;;;-142.35;74.36
8585;BME280;7180;52.742;11.420;2024-02-21T02:06:54;77709.00;;;-142.35;74.64
8585;BME280;7180;52.742;11.420;2024-02-21T02:09:20;77696.91;;;-142.35;74.69
8585;BME280;7180;52.742;11.420;2024-02-21T02:11:45;77696.91;;;-142.35;74.37
8585;BME280;7180;52.742;11.420;2024-02-21T02:14:11;77711.03;;;-142.35;74.50
8585;BME280;7180;52.742;11.420;2024-02-21T02:16:36;77717.06;;;-142.35;75.06
8585;BME280;7180;52.742;11.420;2024-02-21T02:19:01;77717.06;;;-142.35;75.09
8585;BME280;7180;52.742;11.420;2024-02-21T02:21:32;77711.03;;;-142.35;75.22
8585;BME280;7180;52.742;11.420;2024-02-21T02:23:59;77717.06;;;-142.35;75.20
8585;BME280;7180;52.742;11.420;2024-02-21T02:26:25;77717.06;;;-142.35;75.63
8585;BME280;7180;52.742;11.420;2024-02-21T02:31:58;77672.72;;;-142.35;75.33
8585;BME280;7180;52.742;11.420;2024-02-21T02:34:24;77676.75;;;-142.35;75.06
8585;BME280;7180;52.742;11.420;2024-02-21T02:36:49;77674.72;;;-142.35;75.05
8585;BME280;7180;52.742;11.420;2024-02-21T02:39:14;77670.69;;;-142.35;75.18
8585;BME280;7180;52.742;11.420;2024-02-21T02:41:39;77642.47;;;-142.35;74.88
8585;BME280;7180;52.742;11.420;2024-02-21T02:44:05;77640.44;;;-142.35;74.45
8585;BME280;7180;52.742;11.420;2024-02-21T02:46:30;77628.34;;;-142.35;74.80
8585;BME280;7180;52.742;11.420;2024-02-21T02:48:55;77622.31;;;-142.35;74.89
8585;BME280;7180;52.742;11.420;2024-02-21T02:51:21;77604.16;;;-142.35;74.53
8585;BME280;7180;52.742;11.420;2024-02-21T02:53:46;77594.06;;;-142.35;74.43
8585;BME280;7180;52.742;11.420;2024-02-21T02:56:15;77567.84;;;-142.35;74.05
8585;BME280;7180;52.742;11.420;2024-02-21T02:58:42;77527.53;;;-142.35;73.75
8585;BME280;7180;52.742;11.420;2024-02-21T03:01:07;77551.72;;;-142.35;73.59
8585;BME280;7180;52.742;11.420;2024-02-21T03:03:32;77551.72;;;-142.35;74.01
8585;BME280;7180;52.742;11.420;2024-02-21T03:05:58;77495.28;;;-142.35;73.17
8585;BME280;7180;52.742;11.420;2024-02-21T03:08:23;77469.06;;;-142.35;72.90
8585;BME280;7180;52.742;11.420;2024-02-21T03:10:48;77467.03;;;-142.35;72.96
8585;BME280;7180;52.742;11.420;2024-02-21T03:13:14;77454.94;;;-142.35;72.63
8585;BME280;7180;52.742;11.420;2024-02-21T03:15:39;77456.97;;;-142.35;72.60
8585;BME280;7180;52.742;11.420;2024-02-21T03:18:04;77436.81;;;-142.35;72.40
8585;BME280;7180;52.742;11.420;2024-02-21T03:20:30;77410.59;;;-142.35;72.50
8585;BME280;7180;52.742;11.420;2024-02-21T03:22:55;77394.47;;;-142.35;72.12
8585;BME280;7180;52.742;11.420;2024-02-21T03:25:20;77404.53;;;-142.35;72.13
8585;BME280;7180;52.742;11.420;2024-02-21T03:27:45;77386.41;;;-142.35;72.14
8585;BME280;7180;52.742;11.420;2024-02-21T03:30:11;77370.25;;;-142.35;71.69
8585;BME280;7180;52.742;11.420;2024-02-21T03:32:37;77346.06;;;-142.35;71.51
8585;BME280;7180;52.742;11.420;2024-02-21T03:35:04;77352.13;;;-142.35;71.37
8585;BME280;7180;52.742;11.420;2024-02-21T03:37:29;77333.97;;;-142.35;71.34
8585;BME280;7180;52.742;11.420;2024-02-21T03:39:55;77323.88;;;-142.35;71.17
8585;BME280;7180;52.742;11.420;2024-02-21T03:42:20;77315.81;;;-142.35;70.92
8585;BME280;7180;52.742;11.420;2024-02-21T03:44:45;77317.84;;;-142.35;70.92
8585;BME280;7180;52.742;11.420;2024-02-21T03:47:11;77281.56;;;-142.35;70.82
8585;BME280;7180;52.742;11.420;2024-02-21T03:49:37;77305.75;;;-142.35;70.65
8585;BME280;7180;52.742;11.420;2024-02-21T03:52:02;77309.78;;;-142.35;70.68
8585;BME280;7180;52.742;11.420;2024-02-21T03:54:27;77291.63;;;-142.35;70.77
8585;BME280;7180;52.742;11.420;2024-02-21T03:56:53;77289.63;;;-142.35;70.40
8585;BME280;7180;52.742;11.420;2024-02-21T03:59:18;77265.41;;;-142.35;70.33
8585;BME280;7180;52.742;11.420;2024-02-21T04:01:43;77289.63;;;-142.35;70.29
8585;BME280;7180;52.742;11.420;2024-02-21T04:04:09;77301.72;;;-142.35;70.55
8585;BME280;7180;52.742;11.420;2024-02-21T04:06:35;77317.84;;;-142.35;70.65
8585;BME280;7180;52.742;11.420;2024-02-21T04:09:00;77333.97;;;-142.35;70.94
8585;BME280;7180;52.742;11.420;2024-02-21T04:11:25;77297.69;;;-142.35;70.35
8585;BME280;7180;52.742;11.420;2024-02-21T04:13:50;77307.75;;;-142.35;70.35
8585;BME280;7180;52.742;11.420;2024-02-21T04:16:17;77301.72;;;-142.35;70.35
8585;BME280;7180;52.742;11.420;2024-02-21T04:18:42;77293.66;;;-142.35;69.96
8585;BME280;7180;52.742;11.420;2024-02-21T04:21:08;77293.66;;;-142.35;70.28
8585;BME280;7180;52.742;11.420;2024-02-21T04:23:34;77289.63;;;-142.35;70.09
8585;BME280;7180;52.742;11.420;2024-02-21T04:25:59;77249.28;;;-142.35;69.78
8585;BME280;7180;52.742;11.420;2024-02-21T04:28:24;77265.41;;;-142.35;69.78
8585;BME280;7180;52.742;11.420;2024-02-21T04:30:50;77247.28;;;-142.35;69.76
8585;BME280;7180;52.742;11.420;2024-02-21T04:33:15;77235.19;;;-142.35;69.23
8585;BME280;7180;52.742;11.420;2024-02-21T04:35:40;77255.34;;;-142.35;69.64
8585;BME280;7180;52.742;11.420;2024-02-21T04:38:05;77249.28;;;-142.35;69.53
8585;BME280;7180;52.742;11.420;2024-02-21T04:40:31;77251.31;;;-142.35;69.48
8585;BME280;7180;52.742;11.420;2024-02-21T04:42:57;77259.38;;;-142.35;69.80
8585;BME280;7180;52.742;11.420;2024-02-21T04:45:22;77263.41;;;-142.35;69.65
8585;BME280;7180;52.742;11.420;2024-02-21T04:47:48;77265.41;;;-142.35;69.71
8585;BME280;7180;52.742;11.420;2024-02-21T04:50:13;77259.38;;;-142.35;69.88
8585;BME280;7180;52.742;11.420;2024-02-21T04:52:38;77283.56;;;-142.35;69.95
8585;BME280;7180;52.742;11.420;2024-02-21T04:55:04;77265.41;;;-142.35;69.98
8585;BME280;7180;52.742;11.420;2024-02-21T04:57:29;77241.22;;;-142.35;69.57
8585;BME280;7180;52.742;11.420;2024-02-21T04:59:55;77235.19;;;-142.35;69.36
8585;BME280;7180;52.742;11.420;2024-02-21T05:02:20;77208.97;;;-142.35;69.40
8585;BME280;7180;52.742;11.420;2024-02-21T05:04:47;77200.91;;;-142.35;68.88
8585;BME280;7180;52.742;11.420;2024-02-21T05:07:13;77184.78;;;-142.35;68.91
8585;BME280;7180;52.742;11.420;2024-02-21T05:09:38;77206.94;;;-142.35;68.80
8585;BME280;7180;52.742;11.420;2024-02-21T05:12:03;77213.00;;;-142.35;69.01
8585;BME280;7180;52.742;11.420;2024-02-21T05:14:29;77221.06;;;-142.35;68.99
8585;BME280;7180;52.742;11.420;2024-02-21T05:16:54;77204.94;;;-142.35;68.84
8585;BME280;7180;52.742;11.420;2024-02-21T05:19:19;77188.81;;;-142.35;68.65
8585;BME280;7180;52.742;11.420;2024-02-21T05:21:45;77132.34;;;-142.35;68.42
8585;BME280;7180;52.742;11.420;2024-02-21T05:24:11;77092.03;;;-142.35;67.99
8585;BME280;7180;52.742;11.420;2024-02-21T05:26:36;77067.84;;;-142.35;67.69
8585;BME280;7180;52.742;11.420;2024-02-21T05:29:01;77053.72;;;-142.35;67.52
8585;BME280;7180;52.742;11.420;2024-02-21T05:31:43;77047.69;;;-142.35;67.69
8585;BME280;7180;52.742;11.420;2024-02-21T05:34:19;77077.91;;;-142.35;67.74
8585;BME280;7180;52.742;11.420;2024-02-21T05:36:45;77092.03;;;-142.35;67.60
8585;BME280;7180;52.742;11.420;2024-02-21T05:39:11;77096.06;;;-142.35;67.81
8585;BME280;7180;52.742;11.420;2024-02-21T05:41:36;77096.06;;;-142.35;67.78
8585;BME280;7180;52.742;11.420;2024-02-21T05:44:02;77092.03;;;-142.35;67.81
8585;BME280;7180;52.742;11.420;2024-02-21T05:46:27;77088.00;;;-142.35;67.61
8585;BME280;7180;52.742;11.420;2024-02-21T05:48:53;77114.22;;;-142.35;67.88
8585;BME280;7180;52.742;11.420;2024-02-21T05:51:18;77096.06;;;-142.35;67.78
8585;BME280;7180;52.742;11.420;2024-02-21T05:53:43;77088.00;;;-142.35;67.42
8585;BME280;7180;52.742;11.420;2024-02-21T05:56:12;77051.72;;;-142.35;67.43
8585;BME280;7180;52.742;11.420;2024-02-21T05:58:38;77051.72;;;-142.35;67.30
8585;BME280;7180;52.742;11.420;2024-02-21T06:01:03;77039.63;;;-142.35;67.14
8585;BME280;7180;52.742;11.420;2024-02-21T06:03:29;77015.41;;;-142.35;66.81
8585;BME280;7180;52.742;11.420;2024-02-21T06:05:55;77011.38;;;-142.35;66.89
8585;BME280;7180;52.742;11.420;2024-02-21T06:08:20;76999.28;;;-142.35;66.48
8585;BME280;7180;52.742;11.420;2024-02-21T06:10:46;77025.50;;;-142.35;66.64
8585;BME280;7180;52.742;11.420;2024-02-21T06:13:12;77031.56;;;-142.35;66.95
8585;BME280;7180;52.742;11.420;2024-02-21T06:15:37;77035.59;;;-142.35;66.75
8585;BME280;7180;52.742;11.420;2024-02-21T06:18:03;76997.28;;;-142.35;66.67
8585;BME280;7180;52.742;11.420;2024-02-21T06:20:28;76979.13;;;-142.35;66.39
8585;BME280;7180;52.742;11.420;2024-02-21T06:22:54;76961.00;;;-142.35;66.05
8585;BME280;7180;52.742;11.420;2024-02-21T06:25:19;76954.94;;;-142.35;66.17
8585;BME280;7180;52.742;11.420;2024-02-21T06:27:44;76971.06;;;-142.35;66.16
8585;BME280;7180;52.742;11.420;2024-02-21T06:30:10;76979.13;;;-142.35;66.25
8585;BME280;7180;52.742;11.420;2024-02-21T06:32:35;76999.28;;;-142.35;66.43
8585;BME280;7180;52.742;11.420;2024-02-21T06:35:01;76991.22;;;-142.35;66.15
8585;BME280;7180;52.742;11.420;2024-02-21T06:37:27;77011.38;;;-142.35;66.45
8585;BME280;7180;52.742;11.420;2024-02-21T06:39:52;76991.22;;;-142.35;66.31
8585;BME280;7180;52.742;11.420;2024-02-21T06:42:17;77001.31;;;-142.35;66.30
8585;BME280;7180;52.742;11.420;2024-02-21T06:44:44;76975.09;;;-142.35;66.05
8585;BME280;7180;52.742;11.420;2024-02-21T06:47:09;76995.25;;;-142.35;66.35
8585;BME280;7180;52.742;11.420;2024-02-21T06:49:35;77019.47;;;-142.35;66.38
8585;BME280;7180;52.742;11.420;2024-02-21T06:52:03;77007.34;;;-142.35;66.25
8585;BME280;7180;52.742;11.420;2024-02-21T06:54:29;77035.59;;;-142.35;66.38
8585;BME280;7180;52.742;11.420;2024-02-21T06:56:54;77047.69;;;-142.35;66.66
8585;BME280;7180;52.742;11.420;2024-02-21T06:59:19;77037.59;;;-142.35;66.58
8585;BME280;7180;52.742;11.420;2024-02-21T07:01:49;77061.78;;;-142.35;66.69
8585;BME280;7180;52.742;11.420;2024-02-21T07:04:14;77045.66;;;-142.35;66.48
8585;BME280;7180;52.742;11.420;2024-02-21T07:06:40;77047.69;;;-142.35;66.48
8585;BME280;7180;52.742;11.420;2024-02-21T07:09:06;77031.56;;;-142.35;66.61
8585;BME280;7180;52.742;11.420;2024-02-21T07:11:31;77043.66;;;-142.35;66.67
8585;BME280;7180;52.742;11.420;2024-02-21T07:13:56;77059.78;;;-142.35;66.65
8585;BME280;7180;52.742;11.420;2024-02-21T07:16:22;77092.03;;;-142.35;66.80
8585;BME280;7180;52.742;11.420;2024-02-21T07:18:47;77168.66;;;-142.35;67.67
8585;BME280;7180;52.742;11.420;2024-02-21T07:21:12;77213.00;;;-142.35;68.34
8585;BME280;7180;52.742;11.420;2024-02-21T07:23:41;77257.34;;;-142.35;68.89
8585;BME280;7180;52.742;11.420;2024-02-21T07:26:07;77265.41;;;-142.35;69.07
8585;BME280;7180;52.742;11.420;2024-02-21T07:28:32;77271.47;;;-142.35;69.42
8585;BME280;7180;52.742;11.420;2024-02-21T07:30:59;77269.44;;;-142.35;69.37
8585;BME280;7180;52.742;11.420;2024-02-21T07:33:24;77273.47;;;-142.35;69.40
8585;BME280;7180;52.742;11.420;2024-02-21T07:35:49;77301.72;;;-142.35;69.68
8585;BME280;7180;52.742;11.420;2024-02-21T07:38:15;77333.97;;;-142.35;70.00
8585;BME280;7180;52.742;11.420;2024-02-21T07:40:44;77317.84;;;-142.35;70.08
8585;BME280;7180;52.742;11.420;2024-02-21T07:43:09;77374.28;;;-142.35;70.56
8585;BME280;7180;52.742;11.420;2024-02-21T07:45:35;77366.22;;;-142.35;70.98
8585;BME280;7180;52.742;11.420;2024-02-21T07:48:00;77336.00;;;-142.35;70.51
8585;BME280;7180;52.742;11.420;2024-02-21T07:50:25;77309.78;;;-142.35;70.10
8585;BME280;7180;52.742;11.420;2024-02-21T07:52:50;77327.91;;;-142.35;69.95
8585;BME280;7180;52.742;11.420;2024-02-21T07:55:16;77321.88;;;-142.35;70.26
8585;BME280;7180;52.742;11.420;2024-02-21T07:57:41;77315.81;;;-142.35;70.02
8585;BME280;7180;52.742;11.420;2024-02-21T08:00:07;77305.75;;;-142.35;70.29
8585;BME280;7180;52.742;11.420;2024-02-21T08:02:40;77281.56;;;-142.35;69.91
8585;BME280;7180;52.742;11.420;2024-02-21T08:05:05;77325.91;;;-142.35;69.91
8585;BME280;7180;52.742;11.420;2024-02-21T08:07:30;77329.94;;;-142.35;70.28
8585;BME280;7180;52.742;11.420;2024-02-21T08:09:56;77313.81;;;-142.35;70.03
8585;BME280;7180;52.742;11.420;2024-02-21T08:12:21;77309.78;;;-142.35;70.31
8585;BME280;7180;52.742;11.420;2024-02-21T08:14:47;77305.75;;;-142.35;70.34
8585;BME280;7180;52.742;11.420;2024-02-21T08:17:12;77285.59;;;-142.35;70.10
8585;BME280;7180;52.742;11.420;2024-02-21T08:19:37;77273.47;;;-142.35;69.98
8585;BME280;7180;52.742;11.420;2024-02-21T08:22:03;77293.66;;;-142.35;69.90
8585;BME280;7180;52.742;11.420;2024-02-21T08:24:28;77321.88;;;-142.35;70.27
8585;BME280;7180;52.742;11.420;2024-02-21T08:26:53;77376.31;;;-142.35;70.77
8585;BME280;7180;52.742;11.420;2024-02-21T08:29:19;77402.53;;;-142.35;71.44
8585;BME280;7180;52.742;11.420;2024-02-21T08:31:44;77416.63;;;-142.35;71.95
8585;BME280;7180;52.742;11.420;2024-02-21T08:34:09;77424.69;;;-142.35;72.14
8585;BME280;7180;52.742;11.420;2024-02-21T08:36:35;77416.63;;;-142.35;72.46
8585;BME280;7180;52.742;11.420;2024-02-21T08:39:02;77426.72;;;-142.35;72.27
8585;BME280;7180;52.742;11.420;2024-02-21T08:41:31;77422.69;;;-142.35;72.83
8585;BME280;7180;52.742;11.420;2024-02-21T08:43:57;77412.59;;;-142.35;72.63
8585;BME280;7180;52.742;11.420;2024-02-21T08:46:25;77398.50;;;-142.35;72.56
8585;BME280;7180;52.742;11.420;2024-02-21T08:48:51;77402.53;;;-142.35;72.50
8585;BME280;7180;52.742;11.420;2024-02-21T08:51:17;77390.44;;;-142.35;72.38
8585;BME280;7180;52.742;11.420;2024-02-21T08:53:44;77398.50;;;-142.35;72.63
8585;BME280;7180;52.742;11.420;2024-02-21T08:56:09;77402.53;;;-142.35;72.52
8585;BME280;7180;52.742;11.420;2024-02-21T08:58:35;77414.63;;;-142.35;72.75
8585;BME280;7180;52.742;11.420;2024-02-21T09:01:02;77390.44;;;-142.35;72.89
8585;BME280;7180;52.742;11.420;2024-02-21T09:03:28;77386.41;;;-142.35;72.62
8585;BME280;7180;52.742;11.420;2024-02-21T09:05:54;77406.56;;;-142.35;73.03
8585;BME280;7180;52.742;11.420;2024-02-21T09:08:19;77402.53;;;-142.35;73.10
8585;BME280;7180;52.742;11.420;2024-02-21T09:10:44;77412.59;;;-142.35;73.16
8585;BME280;7180;52.742;11.420;2024-02-21T09:13:09;77392.44;;;-142.35;73.37
8585;BME280;7180;52.742;11.420;2024-02-21T09:15:35;77390.44;;;-142.35;73.33
8585;BME280;7180;52.742;11.420;2024-02-21T09:18:00;77366.22;;;-142.35;73.05
8585;BME280;7180;52.742;11.420;2024-02-21T09:20:25;77354.13;;;-142.35;72.90
8585;BME280;7180;52.742;11.420;2024-02-21T09:22:51;77348.09;;;-142.35;72.63
8585;BME280;7180;52.742;11.420;2024-02-21T09:25:18;77336.00;;;-142.35;72.86
8585;BME280;7180;52.742;11.420;2024-02-21T09:27:44;77317.84;;;-142.35;72.71
8585;BME280;7180;52.742;11.420;2024-02-21T09:30:10;77311.78;;;-142.35;72.31
8585;BME280;7180;52.742;11.420;2024-02-21T09:32:35;77281.56;;;-142.35;72.23
8585;BME280;7180;52.742;11.420;2024-02-21T09:35:01;77243.25;;;-142.35;71.76
8585;BME280;7180;52.742;11.420;2024-02-21T09:37:26;77241.22;;;-142.35;71.31
8585;BME280;7180;52.742;11.420;2024-02-21T09:39:51;77221.06;;;-142.35;71.29
8585;BME280;7180;52.742;11.420;2024-02-21T09:42:20;77168.66;;;-142.35;70.66
8585;BME280;7180;52.742;11.420;2024-02-21T09:44:46;77152.50;;;-142.35;70.47
8585;BME280;7180;52.742;11.420;2024-02-21T09:50:17;77110.19;;;-142.35;69.72
8585;BME280;7180;52.742;11.420;2024-02-21T09:52:45;77104.13;;;-142.35;69.56
8585;BME280;7180;52.742;11.420;2024-02-21T09:55:12;77063.81;;;-142.35;69.31
8585;BME280;7180;52.742;11.420;2024-02-21T09:57:39;77035.59;;;-142.35;69.23
8585;BME280;7180;52.742;11.420;2024-02-21T10:00:05;77025.50;;;-142.35;68.76
8585;BME280;7180;52.742;11.420;2024-02-21T10:02:33;76999.28;;;-142.35;68.32
8585;BME280;7180;52.742;11.420;2024-02-21T10:04:59;76977.13;;;-142.35;68.17
8585;BME280;7180;52.742;11.420;2024-02-21T10:07:24;77015.41;;;-142.35;68.25
8585;BME280;7180;52.742;11.420;2024-02-21T10:10:03;76999.28;;;-142.35;68.36
8585;BME280;7180;52.742;11.420;2024-02-21T10:12:28;77001.31;;;-142.35;68.58
8585;BME280;7180;52.742;11.420;2024-02-21T10:15:03;76977.13;;;-142.35;68.31
8585;BME280;7180;52.742;11.420;2024-02-21T10:17:28;76932.75;;;-142.35;67.72
8585;BME280;7180;52.742;11.420;2024-02-21T10:19:53;76898.50;;;-142.35;67.59
8585;BME280;7180;52.742;11.420;2024-02-21T10:22:19;76892.44;;;-142.35;67.54
8585;BME280;7180;52.742;11.420;2024-02-21T10:24:46;76868.25;;;-142.35;66.94
8585;BME280;7180;52.742;11.420;2024-02-21T10:27:12;76874.31;;;-142.35;66.75
8585;BME280;7180;52.742;11.420;2024-02-21T10:29:38;76908.56;;;-142.35;67.15
8585;BME280;7180;52.742;11.420;2024-02-21T10:32:11;76952.94;;;-142.35;67.64
8585;BME280;7180;52.742;11.420;2024-02-21T10:34:37;76985.19;;;-142.35;68.20
8585;BME280;7180;52.742;11.420;2024-02-21T10:37:04;76932.75;;;-142.35;67.62
8585;BME280;7180;52.742;11.420;2024-02-21T10:39:33;76876.31;;;-142.35;67.06
8585;BME280;7180;52.742;11.420;2024-02-21T10:42:03;76807.78;;;-142.35;66.55
8585;BME280;7180;52.742;11.420;2024-02-21T10:44:37;76723.09;;;-142.35;65.97
8585;BME280;7180;52.742;11.420;2024-02-21T10:47:10;76717.06;;;-142.35;65.62
8585;BME280;7180;52.742;11.420;2024-02-21T10:49:39;76741.25;;;-142.35;65.74
8585;BME280;7180;52.742;11.420;2024-02-21T10:52:17;76725.13;;;-142.35;65.66
8585;BME280;7180;52.742;11.420;2024-02-21T10:54:59;76713.03;;;-142.35;65.38
8585;BME280;7180;52.742;11.420;2024-02-21T10:57:27;76682.78;;;-142.35;65.06
8585;BME280;7180;52.742;11.420;2024-02-21T10:59:55;76626.34;;;-142.35;64.47
8585;BME280;7180;52.742;11.420;2024-02-21T11:02:21;76535.63;;;-142.35;63.96
8585;BME280;7180;52.742;11.420;2024-02-21T11:04:46;76519.50;;;-142.35;63.51
8585;BME280;7180;52.742;11.420;2024-02-21T11:07:13;76471.13;;;-142.35;63.12
8585;BME280;7180;52.742;11.420;2024-02-21T11:09:39;76434.84;;;-142.35;62.73
8585;BME280;7180;52.742;11.420;2024-02-21T11:12:05;76432.84;;;-142.35;62.75
8585;BME280;7180;52.742;11.420;2024-02-21T11:14:31;76340.13;;;-142.35;61.65
8585;BME280;7180;52.742;11.420;2024-02-21T11:16:57;76271.59;;;-142.35;61.41
8585;BME280;7180;52.742;11.420;2024-02-21T11:19:25;76205.06;;;-142.35;60.80
8585;BME280;7180;52.742;11.420;2024-02-21T11:21:52;76203.06;;;-142.35;60.75
8585;BME280;7180;52.742;11.420;2024-02-21T11:24:28;76172.81;;;-142.35;60.38
8585;BME280;7180;52.742;11.420;2024-02-21T11:27:07;76186.94;;;-142.35;60.38
8585;BME280;7180;52.742;11.420;2024-02-21T11:29:33;76128.47;;;-142.35;60.17
8585;BME280;7180;52.742;11.420;2024-02-21T11:31:58;76063.97;;;-142.35;59.58
8585;BME280;7180;52.742;11.420;2024-02-21T11:34:23;76166.78;;;-142.35;60.27
8585;BME280;7180;52.742;11.420;2024-02-21T11:36:49;76144.59;;;-142.35;60.13
8585;BME280;7180;52.742;11.420;2024-02-21T11:39:19;76164.75;;;-142.35;60.22
8585;BME280;7180;52.742;11.420;2024-02-21T11:42:03;76118.41;;;-142.35;59.65
8585;BME280;7180;52.742;11.420;2024-02-21T11:44:29;76009.56;;;-142.35;58.99
8585;BME280;7180;52.742;11.420;2024-02-21T11:46:54;75959.19;;;-142.35;58.70
8585;BME280;7180;52.742;11.420;2024-02-21T11:49:20;75906.78;;;-142.35;58.04
8585;BME280;7180;52.742;11.420;2024-02-21T11:51:45;75876.56;;;-142.35;57.99
8585;BME280;7180;52.742;11.420;2024-02-21T11:54:11;75876.56;;;-142.35;57.80
8585;BME280;7180;52.742;11.420;2024-02-21T11:56:38;75812.06;;;-142.35;57.38
8585;BME280;7180;52.742;11.420;2024-02-21T11:59:03;75771.75;;;-142.35;57.24
8585;BME280;7180;52.742;11.420;2024-02-21T12:01:30;75705.25;;;-142.35;56.79
8585;BME280;7180;52.742;11.420;2024-02-21T12:03:56;75749.59;;;-142.35;56.95
8585;BME280;7180;52.742;11.420;2024-02-21T12:06:21;75818.09;;;-142.35;57.49
8585;BME280;7180;52.742;11.420;2024-02-21T12:08:47;75761.69;;;-142.35;57.04
8585;BME280;7180;52.742;11.420;2024-02-21T12:11:22;75765.72;;;-142.35;56.92
8585;BME280;7180;52.742;11.420;2024-02-21T12:14:07;75719.34;;;-142.35;56.48
8585;BME280;7180;52.742;11.420;2024-02-21T12:16:34;75632.69;;;-142.35;55.74
8585;BME280;7180;52.742;11.420;2024-02-21T12:19:02;75650.84;;;-142.35;55.93
8585;BME280;7180;52.742;11.420;2024-02-21T12:21:33;75668.97;;;-142.35;56.13
8585;BME280;7180;52.742;11.420;2024-02-21T12:24:00;75614.56;;;-142.35;55.50
8585;BME280;7180;52.742;11.420;2024-02-21T12:26:25;75713.31;;;-142.35;55.99
8585;BME280;7180;52.742;11.420;2024-02-21T12:28:51;75795.94;;;-142.35;56.48
8585;BME280;7180;52.742;11.420;2024-02-21T12:31:17;75697.19;;;-142.35;55.72
8585;BME280;7180;52.742;11.420;2024-02-21T12:33:43;75656.88;;;-142.35;55.29
8585;BME280;7180;52.742;11.420;2024-02-21T12:36:08;75693.16;;;-142.35;55.68
8585;BME280;7180;52.742;11.420;2024-02-21T12:38:35;75620.59;;;-142.35;55.20
8585;BME280;7180;52.742;11.420;2024-02-21T12:41:00;75533.97;;;-142.35;54.32
8585;BME280;7180;52.742;11.420;2024-02-21T12:43:26;75523.88;;;-142.35;54.45
8585;BME280;7180;52.742;11.420;2024-02-21T12:45:51;75479.53;;;-142.35;54.35
8585;BME280;7180;52.742;11.420;2024-02-21T12:48:17;75441.25;;;-142.35;53.97
8585;BME280;7180;52.742;11.420;2024-02-21T12:50:48;75366.69;;;-142.35;53.30